Time;durP1;ratioP1;P1;durP2;ratioP2;P2;SDS_P1;SDS_P2;PMS_P1;PMS_P2;Temp;Humidity;BMP_temperature;BMP_pressure;BME280_temperature;BME280_humidity;BME280_pressure;Samples;Min_cycle;Max_cycle;Signal;HPM_P1;HPM_P2
2023/12/12 00:01:23;;;;;;;23.15;18.58;;;;;;;;;;10208794;28;20088;-66
2023/12/12 00:06:24;;;;;;;27.08;20.75;;;;;;;;;;10209002;28;20077;-65
2023/12/12 00:11:23;;;;;;;33.80;23.92;;;;;;;;;;10205778;28;20081;-65
2023/12/12 00:16:21;;;;;;;28.42;23.33;;;;;;;;;;10207752;28;20480;-65
2023/12/12 00:21:19;;;;;;;39.22;28.30;;;;;;;;;;10209170;28;20081;-64
2023/12/12 00:26:19;;;;;;;27.33;21.00;;;;;;;;;;10206477;28;20085;-66
2023/12/12 00:31:19;;;;;;;46.45;34.25;;;;;;;;;;10196458;28;20053;-66
2023/12/12 00:36:17;;;;;;;143.57;76.78;;;;;;;;;;10205979;28;20078;-65
2023/12/12 00:41:16;;;;;;;79.03;51.67;;;;;;;;;;10206056;28;20088;-65
2023/12/12 00:46:15;;;;;;;39.75;27.35;;;;;;;;;;10207591;28;20080;-64
2023/12/12 00:51:14;;;;;;;54.55;33.70;;;;;;;;;;10206164;28;20068;-64
2023/12/12 00:56:12;;;;;;;34.78;26.67;;;;;;;;;;10208898;28;20084;-65
2023/12/12 01:01:11;;;;;;;102.82;72.65;;;;;;;;;;10205753;28;20072;-66
2023/12/12 01:06:21;;;;;;;122.25;72.57;;;;;;;;;;10205487;28;20073;-65
2023/12/12 01:11:23;;;;;;;108.88;59.75;;;;;;;;;;10203708;28;20096;-65
2023/12/12 01:16:21;;;;;;;159.07;88.90;;;;;;;;;;10207729;28;20080;-64
2023/12/12 01:21:21;;;;;;;72.65;44.45;;;;;;;;;;10205910;28;20080;-65
2023/12/12 01:26:22;;;;;;;70.18;42.80;;;;;;;;;;10205464;28;20065;-64
2023/12/12 01:31:20;;;;;;;103.25;60.22;;;;;;;;;;10205806;28;20069;-65
2023/12/12 01:36:19;;;;;;;49.13;31.80;;;;;;;;;;10204767;28;20081;-64
2023/12/12 01:41:19;;;;;;;103.80;67.88;;;;;;;;;;10185146;28;20076;-65
2023/12/12 01:46:18;;;;;;;43.03;33.40;;;;;;;;;;10207343;28;20069;-65
2023/12/12 01:51:17;;;;;;;31.40;20.83;;;;;;;;;;10205999;28;20081;-64
2023/12/12 01:56:16;;;;;;;34.85;24.63;;;;;;;;;;10204659;28;20076;-65
2023/12/12 02:01:16;;;;;;;36.45;23.35;;;;;;;;;;10187934;28;20045;-65
2023/12/12 02:06:15;;;;;;;53.47;37.33;;;;;;;;;;10204514;28;20077;-66
2023/12/12 02:11:14;;;;;;;43.97;32.13;;;;;;;;;;10206414;28;20080;-66
2023/12/12 02:16:12;;;;;;;30.23;21.48;;;;;;;;;;10203104;28;20480;-66
2023/12/12 02:21:17;;;;;;;49.53;36.72;;;;;;;;;;10204286;28;20464;-65
2023/12/12 02:26:17;;;;;;;33.47;26.20;;;;;;;;;;10204914;28;20065;-66
2023/12/12 02:31:15;;;;;;;30.48;23.73;;;;;;;;;;10203754;28;20073;-65
2023/12/12 02:36:15;;;;;;;26.73;21.35;;;;;;;;;;10198216;28;20761;-65
2023/12/12 02:41:14;;;;;;;30.70;23.38;;;;;;;;;;10211109;28;20088;-65
2023/12/12 02:46:14;;;;;;;28.92;20.83;;;;;;;;;;10211145;28;20065;-66
2023/12/12 02:51:12;;;;;;;25.88;20.33;;;;;;;;;;10206462;28;20077;-66
2023/12/12 02:56:10;;;;;;;25.45;20.80;;;;;;;;;;10211033;28;20104;-66
2023/12/12 03:01:10;;;;;;;36.45;26.00;;;;;;;;;;10212064;28;20085;-66
2023/12/12 03:06:10;;;;;;;32.80;26.05;;;;;;;;;;10210685;28;20065;-66
2023/12/12 03:11:08;;;;;;;38.83;28.40;;;;;;;;;;10209627;28;20077;-65
2023/12/12 03:16:07;;;;;;;29.75;22.88;;;;;;;;;;10212561;28;20072;-65
2023/12/12 03:21:05;;;;;;;29.70;22.77;;;;;;;;;;10209319;28;20065;-66
2023/12/12 03:26:08;;;;;;;34.20;25.15;;;;;;;;;;10209450;28;20085;-66
2023/12/12 03:31:06;;;;;;;41.03;29.52;;;;;;;;;;10209596;28;20092;-66
2023/12/12 03:36:07;;;;;;;38.90;28.75;;;;;;;;;;10209564;28;20062;-66
2023/12/12 03:41:06;;;;;;;28.80;21.48;;;;;;;;;;10212496;28;20088;-66
2023/12/12 03:46:05;;;;;;;52.10;37.53;;;;;;;;;;10208816;28;20096;-66
2023/12/12 03:51:03;;;;;;;62.60;40.63;;;;;;;;;;10204445;28;20076;-66
2023/12/12 03:56:02;;;;;;;77.05;51.63;;;;;;;;;;10210089;28;20085;-66
2023/12/12 04:01:01;;;;;;;108.20;72.28;;;;;;;;;;10208094;28;20080;-66
2023/12/12 04:06:01;;;;;;;50.20;34.55;;;;;;;;;;10207902;28;20104;-66
2023/12/12 04:11:00;;;;;;;79.03;52.90;;;;;;;;;;10192085;28;20482;-66
2023/12/12 04:15:58;;;;;;;105.63;67.63;;;;;;;;;;10207419;28;20068;-65
2023/12/12 04:20:58;;;;;;;89.70;59.70;;;;;;;;;;10208437;28;20065;-66
2023/12/12 04:25:57;;;;;;;76.32;52.50;;;;;;;;;;10195176;28;20124;-66
2023/12/12 04:30:55;;;;;;;92.95;59.75;;;;;;;;;;10207599;28;20092;-66
2023/12/12 04:35:54;;;;;;;100.03;63.03;;;;;;;;;;10206480;28;20499;-65
2023/12/12 04:40:53;;;;;;;119.47;71.80;;;;;;;;;;10206179;28;20088;-66
2023/12/12 04:45:51;;;;;;;89.22;53.65;;;;;;;;;;10207834;28;20072;-65
2023/12/12 04:50:50;;;;;;;114.55;65.43;;;;;;;;;;10206574;28;20668;-65
2023/12/12 04:55:48;;;;;;;49.15;34.00;;;;;;;;;;10207655;28;20069;-64
2023/12/12 05:00:47;;;;;;;40.75;29.00;;;;;;;;;;10207181;28;20077;-65
2023/12/12 05:05:47;;;;;;;30.73;22.30;;;;;;;;;;10205264;28;20499;-66
2023/12/12 05:10:45;;;;;;;34.47;26.15;;;;;;;;;;10203477;28;20066;-66
2023/12/12 05:15:44;;;;;;;33.97;26.27;;;;;;;;;;10192189;28;20448;-66
2023/12/12 05:20:43;;;;;;;36.08;28.58;;;;;;;;;;10207710;28;20061;-66
2023/12/12 05:25:42;;;;;;;33.65;24.13;;;;;;;;;;10184513;28;20136;-66
2023/12/12 05:30:40;;;;;;;29.38;22.20;;;;;;;;;;10177560;28;20753;-65
2023/12/12 05:35:39;;;;;;;28.80;22.10;;;;;;;;;;10185750;28;20132;-65
2023/12/12 05:40:38;;;;;;;30.75;24.65;;;;;;;;;;10177879;28;20140;-65
2023/12/12 05:45:39;;;;;;;29.60;20.92;;;;;;;;;;10162495;28;20052;-66
2023/12/12 05:50:38;;;;;;;28.45;23.38;;;;;;;;;;10194080;28;20144;-65
2023/12/12 05:55:36;;;;;;;33.58;27.27;;;;;;;;;;10199951;28;20081;-67
2023/12/12 06:00:36;;;;;;;41.83;29.30;;;;;;;;;;10159994;28;20707;-65
2023/12/12 06:05:34;;;;;;;81.03;55.35;;;;;;;;;;10159529;28;20396;-65
2023/12/12 06:10:32;;;;;;;39.30;28.08;;;;;;;;;;10207394;28;20085;-66
2023/12/12 06:15:30;;;;;;;40.72;30.73;;;;;;;;;;10215558;28;20065;-66
2023/12/12 06:20:32;;;;;;;74.57;47.90;;;;;;;;;;10212778;28;20068;-66
2023/12/12 06:25:30;;;;;;;38.08;28.60;;;;;;;;;;10214916;28;20678;-66
2023/12/12 06:30:28;;;;;;;21.90;18.95;;;;;;;;;;10196518;28;20116;-66
2023/12/12 06:35:27;;;;;;;34.17;27.10;;;;;;;;;;10213805;28;20065;-66
2023/12/12 06:40:26;;;;;;;35.35;25.88;;;;;;;;;;10212168;28;20069;-66
2023/12/12 06:45:24;;;;;;;28.58;22.25;;;;;;;;;;10192657;28;20140;-66
2023/12/12 06:50:23;;;;;;;33.42;26.88;;;;;;;;;;10206766;28;20478;-65
2023/12/12 06:55:22;;;;;;;41.67;30.95;;;;;;;;;;10197566;28;20777;-65
2023/12/12 07:00:22;;;;;;;42.80;28.70;;;;;;;;;;10204545;28;20759;-65
2023/12/12 07:05:20;;;;;;;34.13;26.85;;;;;;;;;;10207001;28;20081;-65
2023/12/12 07:10:18;;;;;;;24.40;18.92;;;;;;;;;;10205531;28;20112;-65
2023/12/12 07:15:16;;;;;;;27.88;22.85;;;;;;;;;;10204400;28;20069;-65
2023/12/12 07:20:16;;;;;;;20.50;16.67;;;;;;;;;;10205675;28;20080;-66
2023/12/12 07:25:15;;;;;;;23.67;20.15;;;;;;;;;;10207320;28;20083;-65
2023/12/12 07:30:13;;;;;;;22.33;17.45;;;;;;;;;;10210052;28;20074;-65
2023/12/12 07:35:12;;;;;;;20.52;16.75;;;;;;;;;;10209195;28;20284;-65
2023/12/12 07:40:13;;;;;;;21.27;16.52;;;;;;;;;;10182603;28;20140;-66
2023/12/12 07:45:11;;;;;;;25.95;21.05;;;;;;;;;;10203958;28;20061;-66
2023/12/12 07:50:10;;;;;;;26.58;21.20;;;;;;;;;;10185467;28;20307;-66
2023/12/12 07:55:09;;;;;;;31.90;23.30;;;;;;;;;;10199672;28;20068;-66
2023/12/12 08:00:10;;;;;;;28.20;23.27;;;;;;;;;;10186398;28;20132;-66
2023/12/12 08:05:08;;;;;;;35.42;28.55;;;;;;;;;;10216243;28;20062;-65
2023/12/12 08:10:07;;;;;;;47.08;35.95;;;;;;;;;;10188974;28;20583;-66
2023/12/12 08:15:06;;;;;;;28.77;21.77;;;;;;;;;;10205322;28;20070;-66
2023/12/12 08:20:07;;;;;;;26.33;21.98;;;;;;;;;;10199548;28;20072;-66
2023/12/12 08:25:07;;;;;;;29.35;21.27;;;;;;;;;;10188899;28;21259;-66
2023/12/12 08:30:07;;;;;;;49.05;39.88;;;;;;;;;;10188418;28;20163;-65
2023/12/12 08:35:07;;;;;;;75.72;54.28;;;;;;;;;;10201252;28;20068;-66
2023/12/12 08:40:06;;;;;;;64.60;47.35;;;;;;;;;;10204681;28;20514;-66
2023/12/12 08:45:05;;;;;;;38.97;30.75;;;;;;;;;;10177298;28;20955;-65
2023/12/12 08:50:04;;;;;;;77.07;52.40;;;;;;;;;;10189875;28;20140;-67
2023/12/12 08:55:05;;;;;;;44.22;34.72;;;;;;;;;;10207945;28;20552;-66
2023/12/12 09:00:05;;;;;;;36.80;29.15;;;;;;;;;;10209029;28;20525;-66
2023/12/12 09:05:04;;;;;;;26.65;21.98;;;;;;;;;;10206464;28;20075;-67
2023/12/12 09:10:04;;;;;;;43.17;36.60;;;;;;;;;;10188055;28;20116;-66
2023/12/12 09:15:03;;;;;;;32.85;27.60;;;;;;;;;;10209682;28;20494;-66
2023/12/12 09:20:01;;;;;;;31.80;26.58;;;;;;;;;;10205152;28;20061;-66
2023/12/12 09:25:01;;;;;;;35.15;26.73;;;;;;;;;;10182693;28;20799;-66
2023/12/12 09:30:01;;;;;;;29.70;23.98;;;;;;;;;;10188349;28;20951;-66
2023/12/12 09:34:59;;;;;;;32.67;26.70;;;;;;;;;;10169343;28;20129;-66
2023/12/12 09:39:57;;;;;;;30.80;25.08;;;;;;;;;;10191616;28;20602;-65
2023/12/12 09:44:58;;;;;;;29.77;24.65;;;;;;;;;;10198114;28;20126;-66
2023/12/12 09:49:58;;;;;;;33.25;27.02;;;;;;;;;;10177677;28;20497;-66
2023/12/12 09:54:58;;;;;;;32.88;23.27;;;;;;;;;;10197854;28;20475;-65
2023/12/12 09:59:56;;;;;;;36.00;23.90;;;;;;;;;;10191128;28;20132;-66
2023/12/12 10:04:54;;;;;;;32.17;26.05;;;;;;;;;;10194610;28;20716;-66
2023/12/12 10:09:54;;;;;;;78.18;51.60;;;;;;;;;;10198453;28;20583;-66
2023/12/12 10:14:52;;;;;;;26.88;20.00;;;;;;;;;;10206311;28;20057;-66
2023/12/12 10:19:58;;;;;;;26.45;20.02;;;;;;;;;;10187895;28;20480;-66
2023/12/12 10:25:08;;;;;;;26.20;20.02;;;;;;;;;;10201619;28;20060;-67
2023/12/12 10:30:07;;;;;;;23.23;18.23;;;;;;;;;;10206900;28;20069;-67
2023/12/12 10:35:05;;;;;;;28.15;20.92;;;;;;;;;;10203079;28;20092;-66
2023/12/12 10:40:15;;;;;;;32.08;23.20;;;;;;;;;;10206855;28;20081;-65
2023/12/12 10:45:14;;;;;;;40.22;28.25;;;;;;;;;;10203947;28;20104;-66
2023/12/12 10:50:14;;;;;;;33.42;24.50;;;;;;;;;;10201041;28;20475;-66
2023/12/12 10:55:13;;;;;;;26.80;22.48;;;;;;;;;;10207232;28;20084;-66
2023/12/12 11:00:14;;;;;;;33.95;26.42;;;;;;;;;;10212830;28;20068;-66
2023/12/12 11:05:16;;;;;;;;;;;;;;;;;;10217131;28;20076;-66
2023/12/12 11:10:15;;;;;;;30.67;23.75;;;;;;;;;;10208869;28;20043;-66
2023/12/12 11:15:16;;;;;;;36.13;25.75;;;;;;;;;;10209352;28;20554;-67
2023/12/12 11:20:15;;;;;;;31.40;22.90;;;;;;;;;;10214830;28;20069;-66
2023/12/12 11:25:16;;;;;;;33.72;26.00;;;;;;;;;;10187074;28;20137;-66
2023/12/12 11:30:16;;;;;;;38.38;29.83;;;;;;;;;;10166496;28;20523;-65
2023/12/12 11:35:25;;;;;;;32.15;25.67;;;;;;;;;;10175276;28;20049;-66
2023/12/12 11:40:25;;;;;;;29.20;22.95;;;;;;;;;;10160638;28;20155;-67
2023/12/12 11:45:34;;;;;;;35.47;24.35;;;;;;;;;;10172027;28;20056;-68
2023/12/12 11:50:34;;;;;;;34.63;25.55;;;;;;;;;;10201235;28;20070;-67
2023/12/12 11:55:34;;;;;;;31.17;22.63;;;;;;;;;;10199724;28;20120;-68
2023/12/12 12:00:36;;;;;;;30.35;21.35;;;;;;;;;;10205795;28;20057;-67
2023/12/12 12:05:36;;;;;;;28.08;20.58;;;;;;;;;;10167589;28;20124;-67
2023/12/12 12:10:34;;;;;;;31.83;25.15;;;;;;;;;;10156247;28;20084;-67
2023/12/12 12:15:32;;;;;;;35.33;25.55;;;;;;;;;;10164782;28;21218;-67
2023/12/12 12:20:44;;;;;;;37.25;25.30;;;;;;;;;;10164548;28;20041;-67
2023/12/12 12:25:43;;;;;;;40.10;27.48;;;;;;;;;;10167736;28;20662;-65
2023/12/12 12:30:44;;;;;;;29.15;23.92;;;;;;;;;;10199518;28;20140;-67
2023/12/12 12:35:51;;;;;;;48.00;35.00;;;;;;;;;;10195327;28;20069;-66
2023/12/12 12:40:50;;;;;;;51.35;34.03;;;;;;;;;;10201972;28;20534;-67
2023/12/12 12:45:48;;;;;;;42.10;30.30;;;;;;;;;;10203138;28;20522;-66
2023/12/12 12:50:48;;;;;;;49.55;32.08;;;;;;;;;;10171922;28;20141;-68
2023/12/12 12:55:47;;;;;;;46.13;37.03;;;;;;;;;;10174427;28;20113;-67
2023/12/12 13:00:46;;;;;;;37.53;27.52;;;;;;;;;;10171263;28;20045;-67
2023/12/12 13:05:45;;;;;;;57.17;35.72;;;;;;;;;;10158422;28;21310;-67
2023/12/12 13:10:43;;;;;;;27.98;21.63;;;;;;;;;;10206290;28;20061;-67
2023/12/12 13:15:50;;;;;;;33.88;23.10;;;;;;;;;;10193252;28;20061;-66
2023/12/12 13:20:48;;;;;;;32.80;25.85;;;;;;;;;;10205877;28;20775;-66
2023/12/12 13:25:48;;;;;;;31.15;25.23;;;;;;;;;;10196411;28;20069;-67
2023/12/12 13:30:46;;;;;;;33.55;25.75;;;;;;;;;;10198429;28;20072;-67
2023/12/12 13:35:46;;;;;;;27.80;20.52;;;;;;;;;;10207996;28;20080;-65
2023/12/12 13:40:44;;;;;;;26.00;19.67;;;;;;;;;;10197553;28;20149;-66
2023/12/12 13:45:43;;;;;;;26.77;20.85;;;;;;;;;;10192274;28;20133;-66
2023/12/12 13:50:41;;;;;;;23.33;20.45;;;;;;;;;;10203672;28;20072;-67
2023/12/12 13:55:41;;;;;;;25.67;19.67;;;;;;;;;;10206114;28;20077;-66
2023/12/12 14:00:39;;;;;;;25.17;22.08;;;;;;;;;;10203127;28;20069;-65
2023/12/12 14:05:38;;;;;;;28.98;23.23;;;;;;;;;;10204316;28;20122;-65
2023/12/12 14:10:36;;;;;;;33.10;26.17;;;;;;;;;;10198815;28;20081;-67
2023/12/12 14:15:37;;;;;;;41.67;31.13;;;;;;;;;;10204734;28;20077;-66
2023/12/12 14:20:36;;;;;;;36.05;30.88;;;;;;;;;;10203915;28;20084;-66
2023/12/12 14:25:34;;;;;;;39.40;29.90;;;;;;;;;;10202264;28;20084;-69
2023/12/12 14:30:32;;;;;;;37.97;31.77;;;;;;;;;;10208153;28;20072;-66
2023/12/12 14:35:32;;;;;;;38.67;32.45;;;;;;;;;;10208772;28;20072;-67
2023/12/12 14:40:30;;;;;;;60.03;48.40;;;;;;;;;;10213092;28;20081;-66
2023/12/12 14:45:29;;;;;;;66.75;56.28;;;;;;;;;;10209330;28;20069;-66
2023/12/12 14:50:27;;;;;;;72.88;64.97;;;;;;;;;;10210668;28;20080;-67
2023/12/12 14:55:27;;;;;;;77.22;63.05;;;;;;;;;;10208712;28;20069;-65
2023/12/12 15:00:25;;;;;;;59.88;49.58;;;;;;;;;;10213700;28;20081;-67
2023/12/12 15:05:25;;;;;;;75.88;62.30;;;;;;;;;;10212091;28;20070;-66
2023/12/12 15:10:23;;;;;;;85.07;69.05;;;;;;;;;;10211841;28;20081;-66
2023/12/12 15:15:23;;;;;;;87.05;67.30;;;;;;;;;;10217094;28;20077;-65
2023/12/12 15:20:21;;;;;;;67.20;54.08;;;;;;;;;;10215773;28;20511;-66
2023/12/12 15:25:20;;;;;;;81.80;57.83;;;;;;;;;;10209998;28;20163;-66
2023/12/12 15:30:31;;;;;;;112.95;69.85;;;;;;;;;;10208597;28;20061;-65
2023/12/12 15:35:30;;;;;;;91.97;58.78;;;;;;;;;;10207282;28;20072;-66
2023/12/12 15:40:29;;;;;;;85.95;66.40;;;;;;;;;;10212672;28;20532;-66
2023/12/12 15:45:30;;;;;;;64.63;50.78;;;;;;;;;;10215664;28;20084;-67
2023/12/12 15:50:30;;;;;;;80.55;67.55;;;;;;;;;;10208519;28;20062;-66
2023/12/12 15:55:28;;;;;;;51.30;41.00;;;;;;;;;;10208594;28;20073;-65
2023/12/12 16:00:27;;;;;;;57.60;43.38;;;;;;;;;;10208874;28;20069;-65
2023/12/12 16:05:25;;;;;;;60.80;43.47;;;;;;;;;;10208022;28;20069;-66
2023/12/12 16:10:25;;;;;;;44.00;34.53;;;;;;;;;;10209154;28;20076;-66
2023/12/12 16:15:23;;;;;;;43.72;34.40;;;;;;;;;;10208875;28;20526;-66
2023/12/12 16:20:21;;;;;;;40.25;33.53;;;;;;;;;;10210564;28;20073;-66
2023/12/12 16:25:19;;;;;;;39.70;29.90;;;;;;;;;;10210081;28;20503;-66
2023/12/12 16:30:19;;;;;;;34.05;28.35;;;;;;;;;;10209321;28;20069;-66
2023/12/12 16:35:18;;;;;;;45.33;36.35;;;;;;;;;;10203194;28;20093;-66
2023/12/12 16:40:16;;;;;;;47.13;31.55;;;;;;;;;;10208309;28;20081;-66
2023/12/12 16:45:15;;;;;;;48.53;35.50;;;;;;;;;;10204815;28;20068;-66
2023/12/12 16:50:15;;;;;;;46.33;38.03;;;;;;;;;;10210603;28;20084;-65
2023/12/12 16:55:14;;;;;;;115.55;84.07;;;;;;;;;;10203447;28;20525;-65
2023/12/12 17:00:15;;;;;;;80.43;57.08;;;;;;;;;;10174393;28;20113;-65
2023/12/12 17:05:16;;;;;;;59.80;42.45;;;;;;;;;;10177662;28;20141;-65
2023/12/12 17:10:14;;;;;;;57.85;44.33;;;;;;;;;;10203855;28;20477;-65
2023/12/12 17:15:13;;;;;;;58.75;42.17;;;;;;;;;;10186972;28;20133;-65
2023/12/12 17:20:11;;;;;;;45.55;31.92;;;;;;;;;;10206000;28;20065;-65
2023/12/12 17:25:13;;;;;;;43.53;30.60;;;;;;;;;;10180099;28;20124;-66
2023/12/12 17:30:12;;;;;;;35.10;28.52;;;;;;;;;;10204843;28;20080;-66
2023/12/12 17:35:10;;;;;;;42.25;29.48;;;;;;;;;;10207384;28;20084;-66
2023/12/12 17:40:11;;;;;;;44.33;33.90;;;;;;;;;;10204745;28;20081;-65
2023/12/12 17:45:09;;;;;;;44.33;32.60;;;;;;;;;;10207572;28;20077;-65
2023/12/12 17:50:08;;;;;;;36.55;25.80;;;;;;;;;;10202061;28;20058;-66
2023/12/12 17:55:08;;;;;;;38.33;28.50;;;;;;;;;;10198731;28;20550;-66
2023/12/12 18:00:11;;;;;;;30.58;23.73;;;;;;;;;;10198885;28;20070;-65
2023/12/12 18:05:11;;;;;;;32.00;22.45;;;;;;;;;;10209804;28;20482;-66
2023/12/12 18:10:11;;;;;;;30.48;21.50;;;;;;;;;;10213958;28;20084;-66
2023/12/12 18:15:11;;;;;;;29.63;23.48;;;;;;;;;;10209815;28;20489;-66
2023/12/12 18:20:10;;;;;;;54.63;36.15;;;;;;;;;;10212373;28;20492;-66
2023/12/12 18:25:09;;;;;;;44.97;34.88;;;;;;;;;;10212684;28;20123;-66
2023/12/12 18:30:08;;;;;;;40.45;32.35;;;;;;;;;;10191834;28;20077;-66
2023/12/12 18:35:11;;;;;;;37.45;28.80;;;;;;;;;;10212351;28;20085;-66
2023/12/12 18:40:12;;;;;;;39.42;31.67;;;;;;;;;;10168076;28;1124942;-66
2023/12/12 18:45:11;;;;;;;31.10;23.08;;;;;;;;;;10210296;28;20069;-65
2023/12/12 18:50:12;;;;;;;47.17;36.10;;;;;;;;;;10215325;28;20096;-66
2023/12/12 18:55:10;;;;;;;35.85;26.77;;;;;;;;;;10209231;28;20088;-65
2023/12/12 19:00:11;;;;;;;33.30;27.77;;;;;;;;;;10177890;28;20124;-65
2023/12/12 19:05:11;;;;;;;37.42;29.58;;;;;;;;;;10159119;28;20453;-65
2023/12/12 19:10:11;;;;;;;35.97;27.60;;;;;;;;;;10170239;28;20047;-66
2023/12/12 19:15:10;;;;;;;89.65;62.22;;;;;;;;;;10182703;28;20167;-66
2023/12/12 19:20:11;;;;;;;44.45;34.97;;;;;;;;;;10209297;28;20696;-66
2023/12/12 19:25:10;;;;;;;38.60;31.80;;;;;;;;;;10203491;28;20077;-66
2023/12/12 19:30:09;;;;;;;79.00;52.15;;;;;;;;;;10206640;28;20065;-66
2023/12/12 19:35:09;;;;;;;66.93;48.30;;;;;;;;;;10207906;28;20082;-66
2023/12/12 19:40:09;;;;;;;46.55;33.55;;;;;;;;;;10205471;28;20148;-65
2023/12/12 19:45:08;;;;;;;32.15;26.70;;;;;;;;;;10188394;28;20077;-66
2023/12/12 19:50:07;;;;;;;26.98;21.55;;;;;;;;;;10206790;28;20065;-66
2023/12/12 19:55:06;;;;;;;37.95;28.52;;;;;;;;;;10197984;28;20085;-65
2023/12/12 20:00:09;;;;;;;48.03;37.47;;;;;;;;;;10207751;28;20077;-65
2023/12/12 20:05:10;;;;;;;62.92;46.80;;;;;;;;;;10205744;28;20471;-65
2023/12/12 20:10:12;;;;;;;46.78;37.15;;;;;;;;;;10211350;28;20069;-67
2023/12/12 20:15:14;;;;;;;45.20;33.38;;;;;;;;;;10210268;28;20486;-66
2023/12/12 20:20:12;;;;;;;33.40;23.63;;;;;;;;;;10205922;28;20081;-66
2023/12/12 20:25:11;;;;;;;35.80;27.20;;;;;;;;;;10209070;28;20069;-66
2023/12/12 20:30:10;;;;;;;31.45;24.50;;;;;;;;;;10206000;28;20471;-66
2023/12/12 20:35:10;;;;;;;26.83;22.63;;;;;;;;;;10207435;28;20077;-66
2023/12/12 20:40:10;;;;;;;23.45;17.75;;;;;;;;;;10209372;28;20096;-66
2023/12/12 20:45:09;;;;;;;19.65;16.73;;;;;;;;;;10194220;28;20084;-66
2023/12/12 20:50:09;;;;;;;23.27;18.60;;;;;;;;;;10206369;28;20534;-65
2023/12/12 20:55:10;;;;;;;24.20;17.83;;;;;;;;;;10195056;28;20077;-65
2023/12/12 21:00:10;;;;;;;18.98;16.00;;;;;;;;;;10206390;28;20078;-65
2023/12/12 21:05:09;;;;;;;18.30;15.65;;;;;;;;;;10204949;28;20072;-65
2023/12/12 21:10:09;;;;;;;21.10;18.23;;;;;;;;;;10192968;28;20078;-65
2023/12/12 21:15:08;;;;;;;20.42;17.67;;;;;;;;;;10208918;28;20082;-65
2023/12/12 21:20:06;;;;;;;19.38;17.15;;;;;;;;;;10207259;28;20100;-66
2023/12/12 21:25:05;;;;;;;77.22;45.00;;;;;;;;;;10206710;28;20083;-66
2023/12/12 21:30:07;;;;;;;79.30;50.50;;;;;;;;;;10208602;28;20077;-66
2023/12/12 21:35:05;;;;;;;34.45;25.23;;;;;;;;;;10204534;28;20479;-66
2023/12/12 21:40:05;;;;;;;49.90;35.50;;;;;;;;;;10203390;28;20088;-65
2023/12/12 21:45:05;;;;;;;34.60;27.50;;;;;;;;;;10203963;28;20068;-66
2023/12/12 21:50:04;;;;;;;35.28;28.17;;;;;;;;;;10207170;28;20069;-65
2023/12/12 21:55:03;;;;;;;21.20;17.38;;;;;;;;;;10205780;28;20088;-66
2023/12/12 22:00:04;;;;;;;18.27;14.43;;;;;;;;;;10203742;28;20072;-66
2023/12/12 22:05:10;;;;;;;15.48;12.85;;;;;;;;;;10210898;28;20072;-65
2023/12/12 22:10:08;;;;;;;18.50;15.20;;;;;;;;;;10206188;28;20077;-65
2023/12/12 22:15:07;;;;;;;16.83;13.25;;;;;;;;;;10209165;28;20074;-66
2023/12/12 22:20:06;;;;;;;15.52;13.93;;;;;;;;;;10207074;28;20084;-66
2023/12/12 22:25:06;;;;;;;14.73;13.10;;;;;;;;;;10206884;28;20053;-65
2023/12/12 22:30:06;;;;;;;16.08;12.48;;;;;;;;;;10204921;28;20541;-66
2023/12/12 22:35:04;;;;;;;14.73;13.05;;;;;;;;;;10208719;28;20088;-66
2023/12/12 22:40:03;;;;;;;13.27;11.75;;;;;;;;;;10185082;28;20656;-66
2023/12/12 22:45:03;;;;;;;14.75;11.45;;;;;;;;;;10203454;28;20084;-65
2023/12/12 22:50:02;;;;;;;13.30;11.63;;;;;;;;;;10202278;28;20068;-66
2023/12/12 22:55:00;;;;;;;13.73;12.32;;;;;;;;;;10200421;28;20085;-65
2023/12/12 23:00:00;;;;;;;13.65;11.13;;;;;;;;;;10208849;28;20069;-65
2023/12/12 23:04:59;;;;;;;13.27;10.90;;;;;;;;;;10212637;28;20076;-66
2023/12/12 23:09:58;;;;;;;10.50;9.38;;;;;;;;;;10197296;28;20073;-65
2023/12/12 23:14:56;;;;;;;12.23;10.23;;;;;;;;;;10212859;28;20382;-66
2023/12/12 23:19:54;;;;;;;12.55;10.15;;;;;;;;;;10212687;28;20545;-65
2023/12/12 23:24:54;;;;;;;14.77;10.98;;;;;;;;;;10212131;28;20065;-66
2023/12/12 23:29:52;;;;;;;14.77;11.93;;;;;;;;;;10213596;28;20069;-65
2023/12/12 23:34:50;;;;;;;15.00;11.45;;;;;;;;;;10210757;28;20069;-65
2023/12/12 23:39:50;;;;;;;24.05;14.88;;;;;;;;;;10211712;28;20080;-65
2023/12/12 23:44:49;;;;;;;33.88;21.08;;;;;;;;;;10214138;28;20096;-67
2023/12/12 23:49:47;;;;;;;56.50;29.20;;;;;;;;;;10209582;28;20573;-66
2023/12/12 23:54:46;;;;;;;11.98;10.20;;;;;;;;;;10210561;28;20077;-66
2023/12/12 23:59:45;;;;;;;12.07;9.93;;;;;;;;;;10213073;28;20066;-67
